Time;durP1;ratioP1;P1;durP2;ratioP2;P2;SDS_P1;SDS_P2;PMS_P1;PMS_P2;Temp;Humidity;BMP_temperature;BMP_pressure;BME280_temperature;BME280_humidity;BME280_pressure;Samples;Min_cycle;Max_cycle;Signal;HPM_P1;HPM_P2
2022/12/28 00:00:46;;;;;;;2.50;1.73;;;;;;;3.35;100.00;100879.66;6236822;28;20164;-87
2022/12/28 00:03:48;;;;;;;3.40;1.20;;;;;;;3.39;100.00;100863.28;6235506;28;20071;-87
2022/12/28 00:06:50;;;;;;;5.85;1.80;;;;;;;3.45;100.00;100863.84;6218950;28;20167;-87
2022/12/28 00:09:52;;;;;;;3.75;1.77;;;;;;;3.52;100.00;100856.72;6235293;28;20045;-87
2022/12/28 00:12:53;;;;;;;6.00;1.67;;;;;;;3.49;100.00;100840.66;6236522;28;20124;-87
2022/12/28 00:15:55;;;;;;;3.35;1.58;;;;;;;3.45;100.00;100839.97;6219331;28;20099;-87
2022/12/28 00:18:59;;;;;;;4.65;1.58;;;;;;;3.42;100.00;100834.97;6234644;28;20042;-87
2022/12/28 00:22:01;;;;;;;3.63;1.80;;;;;;;3.34;100.00;100827.66;6234443;28;20087;-87
2022/12/28 00:25:02;;;;;;;4.05;1.90;;;;;;;3.34;100.00;100829.38;6235218;28;20380;-87
2022/12/28 00:28:04;;;;;;;5.57;1.80;;;;;;;3.35;100.00;100821.63;6231800;28;20116;-87
2022/12/28 00:31:06;;;;;;;2.10;1.30;;;;;;;3.34;100.00;100816.59;6218334;28;20418;-87
2022/12/28 00:34:08;;;;;;;2.92;1.45;;;;;;;3.27;100.00;100820.31;6225535;28;20038;-86
2022/12/28 00:37:09;;;;;;;2.22;1.33;;;;;;;3.20;100.00;100812.88;6218171;28;20442;-86
2022/12/28 00:40:13;;;;;;;2.88;1.30;;;;;;;3.16;100.00;100813.94;6235811;28;20541;-87
2022/12/28 00:43:24;;;;;;;2.40;1.40;;;;;;;3.19;100.00;100806.13;6217180;28;20556;-86
2022/12/28 00:46:26;;;;;;;3.35;1.75;;;;;;;3.22;100.00;100807.72;6235607;28;20491;-87
2022/12/28 00:49:27;;;;;;;4.70;1.50;;;;;;;3.21;100.00;100794.09;6229481;28;20064;-87
2022/12/28 00:52:29;;;;;;;4.82;1.50;;;;;;;3.26;100.00;100780.28;6214403;28;20866;-87
2022/12/28 00:55:32;;;;;;;3.33;1.60;;;;;;;3.22;100.00;100769.34;6218500;28;20099;-87
2022/12/28 00:58:34;;;;;;;4.70;1.48;;;;;;;3.34;100.00;100762.88;6227343;28;20091;-87
2022/12/28 01:01:36;;;;;;;2.72;1.30;;;;;;;3.34;100.00;100752.63;6231719;28;20171;-86
2022/12/28 01:04:38;;;;;;;2.63;1.35;;;;;;;3.35;100.00;100749.16;6233701;28;20046;-87
2022/12/28 01:07:40;;;;;;;4.57;2.00;;;;;;;3.43;100.00;100747.94;6218738;28;20049;-87
2022/12/28 01:10:42;;;;;;;3.97;1.58;;;;;;;3.49;100.00;100736.56;6235625;28;20053;-86
2022/12/28 01:13:45;;;;;;;8.82;1.70;;;;;;;3.49;100.00;100728.06;6207974;28;20136;-86
2022/12/28 01:16:46;;;;;;;3.80;1.27;;;;;;;3.58;100.00;100720.81;6225144;28;20660;-86
2022/12/28 01:19:49;;;;;;;3.40;1.40;;;;;;;3.65;100.00;100727.28;6218475;28;20041;-86
2022/12/28 01:22:55;;;;;;;2.78;1.10;;;;;;;3.65;100.00;100717.06;6225551;28;20033;-87
2022/12/28 01:26:00;;;;;;;4.60;1.40;;;;;;;3.66;100.00;100717.88;6206704;28;20452;-87
2022/12/28 01:29:02;;;;;;;2.33;1.20;;;;;;;3.64;100.00;100720.50;6236812;28;20041;-87
2022/12/28 01:32:06;;;;;;;2.85;1.48;;;;;;;3.65;100.00;100711.09;6218444;28;20037;-87
2022/12/28 01:35:08;;;;;;;3.40;1.48;;;;;;;3.67;100.00;100712.66;6238545;28;20045;-87
2022/12/28 01:38:09;;;;;;;4.22;1.90;;;;;;;3.69;100.00;100711.78;6216613;28;20038;-87
2022/12/28 01:41:14;;;;;;;3.33;1.50;;;;;;;3.78;100.00;100711.34;6222750;28;20521;-87
2022/12/28 01:44:15;;;;;;;3.75;1.40;;;;;;;3.81;100.00;100709.47;6223063;28;20131;-87
2022/12/28 01:47:22;;;;;;;5.53;1.30;;;;;;;3.85;100.00;100702.44;6239739;28;20045;-87
2022/12/28 01:50:27;;;;;;;4.10;1.73;;;;;;;3.83;100.00;100687.19;6212030;28;20045;-87
2022/12/28 01:53:29;;;;;;;3.28;1.48;;;;;;;3.87;100.00;100681.00;6235890;28;20045;-87
2022/12/28 01:56:31;;;;;;;4.40;1.60;;;;;;;3.89;100.00;100668.13;6236480;28;20053;-87
2022/12/28 01:59:38;;;;;;;7.07;1.98;;;;;;;3.92;100.00;100656.91;6219259;28;20053;-87
2022/12/28 02:02:44;;;;;;;4.30;1.33;;;;;;;3.87;100.00;100655.38;6217147;28;20042;-87
2022/12/28 02:05:56;;;;;;;2.08;1.40;;;;;;;3.85;100.00;100662.34;6236659;28;20080;-87
2022/12/28 02:09:34;;;;;;;2.28;1.25;;;;;;;3.88;100.00;100651.13;6221367;28;20049;-87
2022/12/28 02:12:36;;;;;;;4.25;2.50;;;;;;;3.85;100.00;100664.03;6138471;28;20797;-87
2022/12/28 02:15:40;;;;;;;3.03;1.30;;;;;;;3.85;100.00;100643.56;6137258;28;20055;-87
2022/12/28 02:18:43;;;;;;;3.33;1.60;;;;;;;3.97;100.00;100634.47;6133173;29;20171;-87
2022/12/28 02:22:09;;;;;;;3.08;1.50;;;;;;;4.00;100.00;100629.16;6134280;29;20050;-87
2022/12/28 02:25:25;;;;;;;2.38;1.33;;;;;;;4.02;100.00;100633.31;6137639;29;20047;-87
2022/12/28 02:28:56;;;;;;;3.17;1.55;;;;;;;4.08;100.00;100615.09;6139359;28;20106;-87
2022/12/28 02:32:14;;;;;;;3.15;1.83;;;;;;;4.17;100.00;100624.03;6138787;29;20214;-87
2022/12/28 02:35:50;;;;;;;3.40;1.48;;;;;;;4.18;100.00;100617.19;6132374;29;20054;-87
2022/12/28 02:39:04;;;;;;;3.58;1.60;;;;;;;4.17;100.00;100616.34;6105637;29;20058;-87
2022/12/28 02:42:08;;;;;;;2.28;1.65;;;;;;;4.19;100.00;100622.22;6128563;29;20059;-87
2022/12/28 02:52:25;;;;;;;3.80;1.80;;;;;;;4.33;100.00;100595.91;6214140;28;20749;-87
2022/12/28 02:56:08;;;;;;;2.42;1.40;;;;;;;4.33;100.00;100603.59;6235835;28;20041;-87
2022/12/28 02:59:42;;;;;;;4.75;1.90;;;;;;;4.29;100.00;100596.97;6205582;28;20049;-87
2022/12/28 03:03:21;;;;;;;4.75;1.65;;;;;;;4.24;100.00;100597.19;6235307;28;20051;-87
2022/12/28 03:10:30;;;;;;;7.30;2.40;;;;;;;4.13;100.00;100586.69;6198789;28;20081;-87
2022/12/28 03:13:50;;;;;;;3.28;1.90;;;;;;;4.00;100.00;100578.81;6217998;28;20262;-87
2022/12/28 03:34:05;;;;;;;2.85;2.03;;;;;;;4.08;100.00;100542.56;6230494;28;20173;-87
2022/12/28 03:37:24;;;;;;;3.65;2.08;;;;;;;4.12;100.00;100526.09;6217149;28;20045;-87
2022/12/28 03:40:41;;;;;;;4.20;2.40;;;;;;;4.14;100.00;100520.91;6194838;28;20046;-87
2022/12/28 03:43:51;;;;;;;4.22;2.47;;;;;;;4.15;100.00;100513.16;6215624;28;20571;-87
2022/12/28 03:47:03;;;;;;;6.45;3.15;;;;;;;4.11;100.00;100509.09;6236552;28;20041;-87
2022/12/28 03:50:05;;;;;;;7.28;2.75;;;;;;;4.04;100.00;100506.00;6230726;28;20282;-86
2022/12/28 03:53:08;;;;;;;6.10;2.20;;;;;;;3.98;100.00;100488.41;6236797;28;20563;-86
2022/12/28 03:56:22;;;;;;;5.78;2.55;;;;;;;3.98;100.00;100480.72;6218528;28;20064;-86
2022/12/28 03:59:27;;;;;;;5.50;2.17;;;;;;;4.03;100.00;100462.56;6211898;28;20049;-86
2022/12/28 04:02:30;;;;;;;3.88;2.17;;;;;;;3.97;100.00;100450.06;6232215;28;20053;-87
2022/12/28 04:05:32;;;;;;;3.95;2.50;;;;;;;3.96;100.00;100448.44;6218439;28;20143;-87
2022/12/28 04:08:34;;;;;;;5.78;2.60;;;;;;;3.90;100.00;100444.47;6224351;28;20166;-86
2022/12/28 04:11:38;;;;;;;5.65;3.63;;;;;;;3.87;100.00;100437.75;6222138;28;20081;-86
2022/12/28 04:14:43;;;;;;;5.63;2.88;;;;;;;3.85;100.00;100441.28;6218973;28;20501;-86
2022/12/28 04:17:46;;;;;;;4.38;2.63;;;;;;;3.93;100.00;100423.81;6236636;28;20041;-86
2022/12/28 04:20:47;;;;;;;4.18;1.85;;;;;;;3.96;100.00;100415.13;6209547;28;20081;-86
2022/12/28 04:23:49;;;;;;;3.88;2.20;;;;;;;4.01;100.00;100413.97;6227933;28;20050;-86
2022/12/28 04:26:54;;;;;;;5.20;2.42;;;;;;;4.06;100.00;100411.16;6208444;28;20041;-86
2022/12/28 04:29:56;;;;;;;4.70;2.20;;;;;;;4.18;100.00;100402.00;6221867;28;20052;-86
2022/12/28 04:32:58;;;;;;;5.65;2.22;;;;;;;4.23;100.00;100397.47;6213367;28;20041;-87
2022/12/28 04:36:10;;;;;;;5.20;2.35;;;;;;;4.21;100.00;100391.59;6215206;28;20621;-86
2022/12/28 04:39:12;;;;;;;6.22;1.80;;;;;;;4.10;100.00;100377.63;6236926;28;20040;-86
2022/12/28 04:42:13;;;;;;;2.80;1.73;;;;;;;4.01;100.00;100378.13;6233278;28;20519;-86
2022/12/28 04:45:15;;;;;;;3.00;1.75;;;;;;;4.14;100.00;100354.41;6234275;28;20048;-87
2022/12/28 04:48:22;;;;;;;3.10;1.88;;;;;;;4.19;100.00;100360.91;6236013;28;20056;-87
2022/12/28 04:51:27;;;;;;;4.13;2.22;;;;;;;4.37;100.00;100360.81;6230335;28;20450;-87
2022/12/28 04:54:29;;;;;;;4.43;2.00;;;;;;;4.57;100.00;100350.28;6215632;28;20033;-87
2022/12/28 04:57:31;;;;;;;5.72;1.98;;;;;;;4.63;100.00;100354.22;6232344;28;20095;-87
2022/12/28 05:00:32;;;;;;;5.78;2.20;;;;;;;4.71;100.00;100331.53;6235884;28;20761;-87
2022/12/28 05:03:35;;;;;;;6.05;2.47;;;;;;;4.76;100.00;100332.09;6236513;28;20051;-87
2022/12/28 05:06:37;;;;;;;4.53;2.10;;;;;;;4.74;100.00;100331.34;6235725;28;20502;-87
2022/12/28 05:09:39;;;;;;;4.50;2.22;;;;;;;4.86;100.00;100317.00;6238309;28;20037;-87
2022/12/28 05:12:41;;;;;;;6.40;3.50;;;;;;;4.86;100.00;100317.81;6238176;28;20220;-86
2022/12/28 05:15:42;;;;;;;3.60;2.30;;;;;;;4.85;100.00;100316.19;6223430;28;20046;-87
2022/12/28 05:18:44;;;;;;;4.70;2.35;;;;;;;4.93;100.00;100319.13;6234405;28;20038;-87
2022/12/28 05:21:46;;;;;;;4.13;2.35;;;;;;;4.88;100.00;100315.19;6232181;28;20126;-87
2022/12/28 05:24:48;;;;;;;6.78;2.92;;;;;;;4.93;100.00;100313.16;6237484;28;20042;-87
2022/12/28 05:27:49;;;;;;;5.97;2.70;;;;;;;4.93;100.00;100298.59;6231409;28;20045;-86
2022/12/28 05:30:52;;;;;;;7.00;2.80;;;;;;;4.88;100.00;100305.72;6240672;28;20053;-86
2022/12/28 05:33:54;;;;;;;3.20;2.30;;;;;;;4.87;100.00;100311.78;6222937;28;20513;-87
2022/12/28 05:36:56;;;;;;;5.00;2.33;;;;;;;4.83;100.00;100307.75;6238374;28;20041;-86
2022/12/28 05:39:57;;;;;;;3.53;2.67;;;;;;;4.79;100.00;100308.84;6236304;28;20575;-87
2022/12/28 05:42:59;;;;;;;3.50;2.20;;;;;;;4.76;100.00;100311.59;6235148;28;20098;-87
2022/12/28 05:46:06;;;;;;;5.75;2.80;;;;;;;4.70;100.00;100317.09;6234542;28;20052;-86
2022/12/28 05:49:08;;;;;;;5.32;2.70;;;;;;;4.71;100.00;100311.84;6238935;28;20511;-87
2022/12/28 05:52:10;;;;;;;4.50;2.70;;;;;;;4.70;100.00;100302.50;6239216;28;20470;-86
2022/12/28 05:55:12;;;;;;;5.85;2.60;;;;;;;4.70;100.00;100310.22;6214044;28;20443;-87
2022/12/28 05:58:13;;;;;;;4.47;2.80;;;;;;;4.74;100.00;100313.41;6214762;28;20510;-87
2022/12/28 06:01:18;;;;;;;3.20;2.53;;;;;;;4.79;100.00;100301.13;6238329;28;20049;-87
2022/12/28 06:04:20;;;;;;;3.55;2.40;;;;;;;4.79;100.00;100285.75;6221999;28;20598;-86
2022/12/28 06:07:22;;;;;;;4.35;2.42;;;;;;;4.78;100.00;100291.81;6220860;28;20091;-87
2022/12/28 06:10:23;;;;;;;4.57;2.40;;;;;;;4.85;100.00;100285.41;6239014;28;20045;-87
2022/12/28 06:13:25;;;;;;;4.03;2.28;;;;;;;4.91;100.00;100284.22;6237035;28;20037;-87
2022/12/28 06:16:29;;;;;;;4.22;2.58;;;;;;;4.94;100.00;100269.47;6239534;28;20045;-87
2022/12/28 06:19:31;;;;;;;4.78;2.28;;;;;;;4.90;100.00;100269.75;6237380;28;20126;-87
2022/12/28 06:22:33;;;;;;;4.78;2.60;;;;;;;4.85;100.00;100254.63;6237007;28;20523;-87
2022/12/28 06:25:36;;;;;;;5.00;2.55;;;;;;;4.80;100.00;100255.84;6236625;28;20060;-85
2022/12/28 06:28:39;;;;;;;6.03;2.67;;;;;;;4.72;100.00;100254.53;6219975;28;20049;-85
2022/12/28 06:31:50;;;;;;;3.47;2.55;;;;;;;4.66;100.00;100252.31;6233848;28;20046;-84
2022/12/28 06:34:51;;;;;;;;;;;;;;;4.65;100.00;100248.13;6240180;28;20045;-85
2022/12/28 06:37:53;;;;;;;4.50;2.65;;;;;;;4.61;100.00;100249.22;6230775;28;20394;-85
2022/12/28 06:41:01;;;;;;;6.03;2.80;;;;;;;4.64;100.00;100253.31;6235402;28;20432;-85
2022/12/28 06:44:14;;;;;;;4.20;2.63;;;;;;;4.70;100.00;100247.84;6237031;28;20463;-85
2022/12/28 06:47:16;;;;;;;4.22;2.50;;;;;;;4.72;100.00;100246.84;6236902;28;20056;-85
2022/12/28 06:50:18;;;;;;;3.65;2.17;;;;;;;4.75;100.00;100243.28;6219449;28;20045;-85
2022/12/28 06:53:19;;;;;;;3.67;2.58;;;;;;;4.73;100.00;100255.38;6237541;28;20144;-85
2022/12/28 06:56:27;;;;;;;6.05;2.67;;;;;;;4.72;100.00;100253.69;6237729;28;20492;-85
2022/12/28 06:59:28;;;;;;;4.47;2.53;;;;;;;4.72;100.00;100267.38;6238780;28;20132;-85
2022/12/28 07:02:30;;;;;;;4.53;2.70;;;;;;;4.71;100.00;100263.13;6236105;28;20399;-86
2022/12/28 07:05:32;;;;;;;5.38;2.92;;;;;;;4.68;100.00;100273.56;6238080;28;20041;-85
2022/12/28 07:08:34;;;;;;;5.07;2.42;;;;;;;4.73;100.00;100293.81;6231827;28;20095;-85
2022/12/28 07:11:36;;;;;;;4.13;2.28;;;;;;;4.76;100.00;100296.19;6230957;28;20049;-86
2022/12/28 07:14:38;;;;;;;3.90;2.67;;;;;;;4.75;100.00;100282.56;6233016;28;20060;-86
2022/12/28 07:17:40;;;;;;;3.45;2.28;;;;;;;4.76;100.00;100275.69;6217543;28;20052;-86
2022/12/28 07:20:41;;;;;;;7.30;2.75;;;;;;;4.80;100.00;100289.97;6236725;28;20115;-86
2022/12/28 07:23:43;;;;;;;5.45;2.60;;;;;;;4.79;100.00;100285.75;6232733;28;20409;-86
2022/12/28 07:26:45;;;;;;;4.90;2.45;;;;;;;4.85;100.00;100276.91;6231275;28;20451;-86
2022/12/28 07:29:47;;;;;;;6.07;2.70;;;;;;;4.83;100.00;100269.28;6235112;28;20670;-87
2022/12/28 07:32:49;;;;;;;4.47;2.50;;;;;;;4.85;100.00;100285.41;6233077;28;20041;-87
2022/12/28 07:35:50;;;;;;;4.00;2.50;;;;;;;4.85;100.00;100287.97;6236821;28;20072;-86
2022/12/28 07:38:52;;;;;;;4.70;2.58;;;;;;;4.88;100.00;100281.84;6236980;28;20371;-87
2022/12/28 07:41:54;;;;;;;3.42;2.40;;;;;;;4.92;100.00;100283.31;6237535;28;20491;-87
2022/12/28 07:44:56;;;;;;;3.97;2.45;;;;;;;4.86;100.00;100271.66;6234169;28;20049;-87
2022/12/28 07:47:57;;;;;;;5.88;2.80;;;;;;;4.91;100.00;100274.78;6227624;28;20029;-87
2022/12/28 07:51:28;;;;;;;3.10;2.53;;;;;;;5.02;100.00;100271.59;6202342;28;20049;-87
2022/12/28 07:54:30;;;;;;;4.07;2.25;;;;;;;5.07;100.00;100278.97;6237520;28;20160;-87
2022/12/28 07:57:33;;;;;;;3.10;2.20;;;;;;;5.13;100.00;100276.06;6236988;28;20474;-88
2022/12/28 08:00:35;;;;;;;5.88;2.38;;;;;;;5.18;100.00;100266.34;6232126;28;20170;-89
2022/12/28 08:03:38;;;;;;;3.00;2.30;;;;;;;5.22;100.00;100275.50;6229697;28;20617;-88
2022/12/28 08:06:41;;;;;;;3.95;2.15;;;;;;;5.25;100.00;100283.03;6235056;28;20049;-88
2022/12/28 08:09:43;;;;;;;6.97;2.20;;;;;;;5.23;100.00;100284.84;6214683;28;20506;-88
2022/12/28 08:12:45;;;;;;;3.17;2.13;;;;;;;5.31;100.00;100290.34;6233951;28;20046;-88
2022/12/28 08:15:53;;;;;;;3.03;2.10;;;;;;;5.35;100.00;100280.72;6218190;28;20494;-88
2022/12/28 08:18:56;;;;;;;5.55;2.15;;;;;;;5.38;100.00;100277.97;6225631;28;20463;-88
2022/12/28 08:21:57;;;;;;;2.70;1.80;;;;;;;5.35;100.00;100285.84;6223060;28;20050;-88
2022/12/28 08:24:59;;;;;;;2.55;1.95;;;;;;;5.38;100.00;100278.78;6205963;28;20054;-88
2022/12/28 08:28:01;;;;;;;3.85;2.40;;;;;;;5.43;100.00;100283.63;6226212;28;20456;-88
2022/12/28 08:31:19;;;;;;;3.20;2.45;;;;;;;5.49;100.00;100274.72;6218694;28;20037;-88
2022/12/28 08:34:25;;;;;;;2.72;2.05;;;;;;;5.49;100.00;100267.03;6222507;28;20127;-88
2022/12/28 08:37:27;;;;;;;3.03;1.80;;;;;;;5.53;100.00;100264.19;6217325;28;20045;-88
2022/12/28 08:40:29;;;;;;;2.78;1.80;;;;;;;5.59;100.00;100268.13;6211656;28;20049;-88
2022/12/28 08:43:32;;;;;;;3.33;2.08;;;;;;;5.67;100.00;100260.75;6200631;28;20353;-88
2022/12/28 08:46:35;;;;;;;2.50;2.08;;;;;;;5.70;100.00;100264.88;6220053;28;20488;-88
2022/12/28 08:49:37;;;;;;;3.53;2.05;;;;;;;5.74;100.00;100269.72;6225163;28;20049;-88
2022/12/28 08:52:39;;;;;;;3.03;2.38;;;;;;;5.83;100.00;100270.88;6220426;28;20135;-88
2022/12/28 08:55:41;;;;;;;4.72;2.58;;;;;;;5.90;100.00;100258.47;6223820;28;20626;-88
2022/12/28 08:58:44;;;;;;;3.15;2.33;;;;;;;5.96;100.00;100263.25;6227000;28;20033;-88
2022/12/28 09:01:46;;;;;;;3.17;2.33;;;;;;;5.93;100.00;100261.66;6202247;28;20328;-88
2022/12/28 09:04:48;;;;;;;3.05;2.00;;;;;;;5.99;100.00;100257.94;6217201;28;20061;-88
2022/12/28 09:07:51;;;;;;;2.88;2.10;;;;;;;6.01;100.00;100256.06;6213714;28;20097;-88
2022/12/28 09:11:04;;;;;;;3.03;2.08;;;;;;;6.10;100.00;100263.19;6202667;28;20042;-88
2022/12/28 09:14:09;;;;;;;3.55;2.33;;;;;;;6.11;100.00;100276.84;6226060;28;20111;-88
2022/12/28 09:17:10;;;;;;;3.53;2.20;;;;;;;6.12;100.00;100273.38;6224282;28;20048;-88
2022/12/28 09:20:12;;;;;;;3.85;2.40;;;;;;;6.12;100.00;100270.81;6220084;28;20160;-88
2022/12/28 09:23:14;;;;;;;3.05;2.22;;;;;;;6.14;100.00;100254.38;6222759;28;20053;-88
2022/12/28 09:26:24;;;;;;;4.63;2.85;;;;;;;6.07;100.00;100268.53;6226770;28;20046;-88
2022/12/28 09:29:26;;;;;;;5.53;2.25;;;;;;;6.13;100.00;100257.03;6220589;28;20052;-88
2022/12/28 09:32:28;;;;;;;3.95;2.28;;;;;;;6.13;100.00;100257.03;6225924;28;20048;-87
2022/12/28 09:35:30;;;;;;;2.95;2.30;;;;;;;6.27;100.00;100274.13;6229458;28;20042;-88
2022/12/28 09:38:32;;;;;;;4.03;2.20;;;;;;;6.34;100.00;100265.09;6229705;28;20519;-88
2022/12/28 09:41:39;;;;;;;2.85;2.30;;;;;;;6.45;100.00;100278.06;6228795;28;20048;-88
2022/12/28 09:44:59;;;;;;;2.97;2.10;;;;;;;6.52;100.00;100276.72;6223423;28;20499;-88
2022/12/28 09:48:13;;;;;;;3.75;2.00;;;;;;;6.63;100.00;100260.59;6222277;28;20042;-88
2022/12/28 09:51:16;;;;;;;3.33;2.47;;;;;;;6.73;100.00;100268.50;6230564;28;20552;-88
2022/12/28 09:54:19;;;;;;;2.80;2.05;;;;;;;6.83;100.00;100267.81;6229516;28;20049;-88
2022/12/28 09:57:22;;;;;;;2.97;2.05;;;;;;;6.87;100.00;100255.53;6239306;28;20128;-86
2022/12/28 10:00:30;;;;;;;2.90;2.15;;;;;;;6.96;100.00;100249.78;6235051;28;20049;-86
2022/12/28 10:03:39;;;;;;;4.28;2.20;;;;;;;6.99;100.00;100248.75;6226739;28;20052;-86
2022/12/28 10:06:42;;;;;;;2.75;2.10;;;;;;;7.07;100.00;100238.75;6221316;28;20077;-86
2022/12/28 10:09:45;;;;;;;1.95;1.75;;;;;;;7.12;100.00;100240.06;6226572;28;20580;-86
2022/12/28 10:12:48;;;;;;;2.38;1.98;;;;;;;7.22;100.00;100226.56;6231499;28;20053;-86
2022/12/28 10:15:51;;;;;;;2.65;1.85;;;;;;;7.27;100.00;100225.31;6225852;28;20083;-86
2022/12/28 10:18:53;;;;;;;2.47;1.60;;;;;;;7.27;100.00;100214.19;6235945;28;20042;-87
2022/12/28 10:22:01;;;;;;;2.85;1.80;;;;;;;7.16;100.00;100216.72;6231172;28;20426;-86
2022/12/28 10:25:13;;;;;;;3.05;1.83;;;;;;;6.94;100.00;100213.03;6231145;28;20049;-86
2022/12/28 10:28:20;;;;;;;3.58;1.88;;;;;;;6.77;100.00;100229.63;6226709;28;20126;-87
2022/12/28 10:31:35;;;;;;;2.92;2.10;;;;;;;6.83;100.00;100231.78;6227084;28;20160;-87
2022/12/28 10:34:53;;;;;;;2.75;2.13;;;;;;;7.02;100.00;100233.09;6212213;28;20405;-86
2022/12/28 10:38:06;;;;;;;3.03;1.50;;;;;;;7.14;100.00;100234.81;6231905;28;20052;-87
2022/12/28 10:41:11;;;;;;;2.28;1.70;;;;;;;7.17;100.00;100232.03;6230676;28;20033;-86
2022/12/28 10:44:27;;;;;;;2.40;1.63;;;;;;;7.19;100.00;100219.88;6238248;28;20049;-87
2022/12/28 10:47:45;;;;;;;3.80;1.60;;;;;;;7.28;100.00;100223.56;6229921;28;20040;-87
2022/12/28 10:50:50;;;;;;;4.90;1.80;;;;;;;7.36;100.00;100218.69;6230106;28;20102;-87
2022/12/28 10:53:54;;;;;;;2.28;1.60;;;;;;;7.40;100.00;100212.38;6216194;28;20243;-87
2022/12/28 10:56:56;;;;;;;2.30;1.40;;;;;;;7.44;100.00;100203.53;6225175;28;20049;-87
2022/12/28 11:00:19;;;;;;;2.30;1.65;;;;;;;7.46;100.00;100195.69;6223936;28;20034;-87
2022/12/28 11:03:34;;;;;;;2.83;1.38;;;;;;;7.53;100.00;100190.00;6223310;28;20057;-87
2022/12/28 11:06:58;;;;;;;2.00;1.38;;;;;;;7.59;100.00;100193.88;6220513;28;20541;-87
2022/12/28 11:10:27;;;;;;;2.40;1.33;;;;;;;7.64;100.00;100181.50;6211891;28;20049;-87
2022/12/28 11:13:29;;;;;;;1.55;1.20;;;;;;;7.74;100.00;100179.88;6216775;28;20893;-87
2022/12/28 11:16:35;;;;;;;2.22;1.60;;;;;;;7.84;100.00;100163.75;6222113;28;20030;-86
2022/12/28 11:19:37;;;;;;;1.52;1.35;;;;;;;7.91;100.00;100165.78;6208682;28;20649;-86
2022/12/28 11:22:39;;;;;;;2.92;1.60;;;;;;;7.87;100.00;100168.69;6225235;28;20041;-86
2022/12/28 11:25:40;;;;;;;1.30;1.20;;;;;;;7.91;100.00;100164.97;6231702;28;20041;-86
2022/12/28 11:28:44;;;;;;;2.38;1.00;;;;;;;7.95;100.00;100166.38;6230749;28;20171;-86
2022/12/28 11:32:10;;;;;;;1.23;1.08;;;;;;;7.97;100.00;100173.06;6227399;28;20040;-87
2022/12/28 11:35:25;;;;;;;3.10;1.00;;;;;;;7.96;100.00;100171.41;6223797;28;20093;-89
2022/12/28 11:38:38;;;;;;;1.10;1.00;;;;;;;7.99;100.00;100168.59;6226798;28;20041;-86
2022/12/28 11:41:42;;;;;;;1.08;1.00;;;;;;;7.99;100.00;100170.34;6218955;28;20072;-86
2022/12/28 11:45:05;;;;;;;1.17;1.08;;;;;;;7.98;100.00;100161.00;6215565;28;20041;-86
2022/12/28 11:48:41;;;;;;;1.45;1.00;;;;;;;7.86;100.00;100159.31;6220471;28;20025;-86
2022/12/28 11:51:43;;;;;;;1.02;0.90;;;;;;;7.78;100.00;100162.47;6218896;28;20141;-86
2022/12/28 11:55:01;;;;;;;1.58;1.10;;;;;;;7.74;100.00;100159.28;6219352;28;20164;-87
2022/12/28 11:58:41;;;;;;;3.80;1.00;;;;;;;7.72;100.00;100158.56;6219051;28;20373;-86
2022/12/28 12:01:43;;;;;;;1.13;1.02;;;;;;;7.67;100.00;100163.22;6219507;28;20045;-87
2022/12/28 12:04:46;;;;;;;1.88;1.00;;;;;;;7.60;100.00;100153.47;6223054;28;20057;-86
2022/12/28 12:07:48;;;;;;;1.10;1.00;;;;;;;7.58;100.00;100163.91;6235153;28;20049;-87
2022/12/28 12:11:31;;;;;;;1.30;1.05;;;;;;;7.60;100.00;100156.06;6234128;28;20483;-86
2022/12/28 12:14:57;;;;;;;0.98;0.82;;;;;;;7.59;100.00;100155.25;6235478;28;20392;-86
2022/12/28 12:18:03;;;;;;;2.25;1.05;;;;;;;7.59;100.00;100150.09;6216418;28;20050;-86
2022/12/28 12:21:08;;;;;;;0.88;0.70;;;;;;;7.53;100.00;100147.97;6225288;28;20053;-87
2022/12/28 12:24:56;;;;;;;1.25;1.15;;;;;;;7.57;100.00;100143.41;6225302;28;20135;-89
2022/12/28 12:28:05;;;;;;;1.33;0.80;;;;;;;7.63;100.00;100145.56;6192459;28;20062;-87
2022/12/28 12:31:13;;;;;;;0.80;0.80;;;;;;;7.59;100.00;100139.78;6186129;28;20320;-86
2022/12/28 12:34:43;;;;;;;0.90;0.80;;;;;;;7.52;100.00;100139.41;6184293;28;20054;-86
2022/12/28 12:37:51;;;;;;;1.00;0.85;;;;;;;7.44;100.00;100156.34;6191099;28;20144;-87
2022/12/28 12:41:19;;;;;;;0.80;0.80;;;;;;;7.37;100.00;100153.38;6180425;28;20116;-86
2022/12/28 12:44:36;;;;;;;1.23;1.00;;;;;;;7.32;100.00;100163.19;6176708;28;20066;-86
2022/12/28 12:47:57;;;;;;;0.85;0.82;;;;;;;7.34;100.00;100159.59;6173311;28;20706;-86
2022/12/28 12:51:17;;;;;;;0.80;0.80;;;;;;;7.40;100.00;100165.22;6182516;28;20074;-86
2022/12/28 12:54:40;;;;;;;1.05;0.95;;;;;;;7.45;100.00;100158.00;6176693;28;20082;-86
2022/12/28 12:58:02;;;;;;;1.38;0.80;;;;;;;7.52;100.00;100159.19;6185872;28;20053;-86
2022/12/28 13:01:40;;;;;;;1.33;0.88;;;;;;;7.53;100.00;100153.94;6183619;28;20058;-86
2022/12/28 13:04:49;;;;;;;0.93;0.82;;;;;;;7.50;100.00;100154.16;6208850;28;20053;-86
2022/12/28 13:07:55;;;;;;;1.05;0.98;;;;;;;7.57;100.00;100145.97;6220053;28;20050;-86
2022/12/28 13:10:57;;;;;;;0.98;0.90;;;;;;;7.60;100.00;100146.56;6229325;28;20104;-86
2022/12/28 13:13:59;;;;;;;1.38;0.90;;;;;;;7.63;100.00;100135.25;6205861;28;20057;-86
2022/12/28 13:17:00;;;;;;;0.80;0.80;;;;;;;7.72;100.00;100137.13;6235739;28;20040;-86
2022/12/28 13:20:08;;;;;;;1.85;1.10;;;;;;;7.65;100.00;100128.22;6220417;28;20042;-86
2022/12/28 13:23:18;;;;;;;1.63;0.93;;;;;;;7.66;100.00;100141.00;6214521;28;20096;-86
2022/12/28 13:26:27;;;;;;;0.80;0.80;;;;;;;7.63;100.00;100130.91;6216975;28;20457;-86
2022/12/28 13:29:38;;;;;;;0.88;0.80;;;;;;;7.70;100.00;100120.97;6218487;28;20373;-86
2022/12/28 13:33:02;;;;;;;1.23;1.00;;;;;;;7.67;100.00;100126.34;6227367;28;20049;-86
2022/12/28 13:36:18;;;;;;;1.02;0.88;;;;;;;7.70;100.00;100118.38;6223914;28;20042;-86
2022/12/28 13:39:20;;;;;;;0.90;0.90;;;;;;;7.67;100.00;100116.84;6226046;28;20636;-86
2022/12/28 13:42:31;;;;;;;1.50;1.00;;;;;;;7.64;100.00;100113.69;6221291;28;20598;-86
2022/12/28 13:45:33;;;;;;;1.10;1.00;;;;;;;7.65;100.00;100123.06;6219445;28;20619;-86
2022/12/28 13:48:43;;;;;;;1.33;1.10;;;;;;;7.63;100.00;100118.03;6221819;28;20460;-86
2022/12/28 13:51:52;;;;;;;1.25;1.00;;;;;;;7.63;100.00;100112.88;6218589;28;20045;-86
2022/12/28 13:54:59;;;;;;;3.78;1.23;;;;;;;7.59;100.00;100108.88;6223618;28;20041;-86
2022/12/28 13:58:21;;;;;;;1.42;1.00;;;;;;;7.56;100.00;100122.00;6220888;28;20042;-86
2022/12/28 14:01:28;;;;;;;1.40;1.10;;;;;;;7.51;100.00;100116.34;6227922;28;20049;-86
2022/12/28 14:04:31;;;;;;;1.27;0.98;;;;;;;7.47;100.00;100113.16;6226787;28;20483;-86
2022/12/28 14:07:54;;;;;;;1.02;1.00;;;;;;;7.44;100.00;100115.97;6223101;28;20029;-86
2022/12/28 14:10:57;;;;;;;1.65;0.90;;;;;;;7.45;100.00;100119.38;6224878;28;20132;-86
2022/12/28 14:13:59;;;;;;;1.55;0.98;;;;;;;7.46;100.00;100116.69;6222998;28;20188;-86
2022/12/28 14:17:01;;;;;;;1.92;1.08;;;;;;;7.51;100.00;100111.22;6220869;28;20048;-86
2022/12/28 14:20:04;;;;;;;3.05;1.05;;;;;;;7.52;100.00;100107.69;6223021;28;20068;-86
2022/12/28 14:23:25;;;;;;;1.33;1.00;;;;;;;7.45;100.00;100107.34;6222815;28;20593;-86
2022/12/28 14:26:29;;;;;;;;;;;;;;;7.46;100.00;100113.28;6225979;28;20774;-86
2022/12/28 14:29:34;;;;;;;1.38;1.00;;;;;;;7.42;100.00;100107.53;6224741;28;19925;-86
2022/12/28 14:32:36;;;;;;;1.83;1.00;;;;;;;7.39;100.00;100109.53;6226760;28;20037;-86
2022/12/28 14:35:58;;;;;;;3.45;1.17;;;;;;;7.42;100.00;100112.69;6223241;28;20205;-86
2022/12/28 14:39:02;;;;;;;1.48;0.90;;;;;;;7.42;100.00;100112.69;6212982;28;20056;-86
2022/12/28 14:42:19;;;;;;;3.08;1.00;;;;;;;7.36;100.00;100115.72;6202143;28;20050;-87
2022/12/28 14:45:42;;;;;;;0.80;0.80;;;;;;;7.33;100.00;100113.38;6227305;28;20081;-86
2022/12/28 14:49:25;;;;;;;1.00;0.90;;;;;;;7.26;100.00;100118.13;6224496;28;20048;-86
2022/12/28 14:52:27;;;;;;;1.75;1.00;;;;;;;7.21;100.00;100122.78;6230067;28;20053;-86
2022/12/28 14:55:37;;;;;;;1.58;1.05;;;;;;;7.16;100.00;100127.44;6228007;28;20061;-86
2022/12/28 14:58:47;;;;;;;2.20;1.00;;;;;;;7.14;100.00;100107.88;6229197;28;20046;-86
2022/12/28 15:02:39;;;;;;;1.52;0.90;;;;;;;7.23;100.00;100123.50;6207707;28;20060;-86